Main page
METAR-TAF:

METAR-TAF

Airports :

Yakutsk Airport

Yakutsk, Russia

latitude: 62-01N, longitude: 129-43E, elevation: 103 m

Current weather observation

The report was made 25 minutes ago, at 18:00 UTC
Wind 4 kt from the North
Temperature -39°C
Humidity 59%
Pressure 1013 hPa
Visibility: 0900 m
fog

METAR: UEEE 171800Z 36002MPS 1200 0900NE R23L/1900U FG NSC M39/M44 Q1013 R23L/450149 NOSIG RMK QFE751

Time: 03:25 (18:25 UTC)

Forecast

The report was made 1 hour and 25 minutes ago, at 17:00 UTC
Forecast valid from 17 at 18 UTC to 18 at 24 UTC
Wind 2 kt from variable directions
Visibility: 0800 m
fog
Temporary
from 17 at 18 UTC to 18 at 06 UTC
Visibility: 0300 m
at a height of 300 ft
fog

TAF: UEEE 171700Z 1718/1824 VRB01MPS 0800 FG NSC TXM36/1806Z TNM43/1723Z TEMPO 1718/1806 0300 FG VV003

Weather observations and forecasts of more than 4000 airports (METAR and TAF reports).

The available stations are represented by yellow and red dots on the map.

Hover mouse over dot to see the name of the station.

Then click to see weather observations and forecasts.

To change the map : click on the green buttons with a black cross to zoom in, on the green button with a dash to zoom out, or on the green arrows for adjacent maps.


METAR-TAF: